sensor_id;sensor_type;location;lat;lon;timestamp;temperature;humidity
23233;DHT22;11785;49.500;8.288;2022-11-11T00:00:27;4.70;99.90
23233;DHT22;11785;49.500;8.288;2022-11-11T00:02:57;4.70;99.90
23233;DHT22;11785;49.500;8.288;2022-11-11T00:05:23;4.70;99.90
23233;DHT22;11785;49.500;8.288;2022-11-11T00:07:51;4.60;99.90
23233;DHT22;11785;49.500;8.288;2022-11-11T00:10:18;4.60;99.90
23233;DHT22;11785;49.500;8.288;2022-11-11T00:12:43;4.60;99.90
23233;DHT22;11785;49.500;8.288;2022-11-11T00:15:09;4.50;99.90
23233;DHT22;11785;49.500;8.288;2022-11-11T00:17:35;4.60;99.90
23233;DHT22;11785;49.500;8.288;2022-11-11T00:20:19;4.60;99.90
23233;DHT22;11785;49.500;8.288;2022-11-11T00:23:03;4.60;99.90
23233;DHT22;11785;49.500;8.288;2022-11-11T00:25:51;4.60;99.90
23233;DHT22;11785;49.500;8.288;2022-11-11T00:28:17;4.50;99.90
23233;DHT22;11785;49.500;8.288;2022-11-11T00:30:43;4.50;99.90
23233;DHT22;11785;49.500;8.288;2022-11-11T00:33:08;4.40;99.90
23233;DHT22;11785;49.500;8.288;2022-11-11T00:35:34;4.40;99.90
23233;DHT22;11785;49.500;8.288;2022-11-11T00:38:18;4.40;99.90
23233;DHT22;11785;49.500;8.288;2022-11-11T00:41:07;4.30;99.90
23233;DHT22;11785;49.500;8.288;2022-11-11T00:43:32;4.30;99.90
23233;DHT22;11785;49.500;8.288;2022-11-11T00:45:58;4.20;99.90
23233;DHT22;11785;49.500;8.288;2022-11-11T00:48:42;4.20;99.90
23233;DHT22;11785;49.500;8.288;2022-11-11T00:51:28;4.20;99.90
23233;DHT22;11785;49.500;8.288;2022-11-11T00:53:53;4.20;99.90
23233;DHT22;11785;49.500;8.288;2022-11-11T00:56:20;4.20;99.90
23233;DHT22;11785;49.500;8.288;2022-11-11T00:58:45;4.20;99.90
23233;DHT22;11785;49.500;8.288;2022-11-11T01:01:11;4.20;99.90
23233;DHT22;11785;49.500;8.288;2022-11-11T01:03:37;4.20;99.90
23233;DHT22;11785;49.500;8.288;2022-11-11T01:06:03;4.20;99.90
23233;DHT22;11785;49.500;8.288;2022-11-11T01:08:30;4.20;99.90
23233;DHT22;11785;49.500;8.288;2022-11-11T01:10:56;4.20;99.90
23233;DHT22;11785;49.500;8.288;2022-11-11T01:13:24;4.20;99.90
23233;DHT22;11785;49.500;8.288;2022-11-11T01:15:52;4.10;99.90
23233;DHT22;11785;49.500;8.288;2022-11-11T01:18:21;4.10;99.90
23233;DHT22;11785;49.500;8.288;2022-11-11T01:20:54;4.20;99.90
23233;DHT22;11785;49.500;8.288;2022-11-11T01:23:21;4.20;99.90
23233;DHT22;11785;49.500;8.288;2022-11-11T01:25:47;4.20;99.90
23233;DHT22;11785;49.500;8.288;2022-11-11T01:28:13;4.20;99.90
23233;DHT22;11785;49.500;8.288;2022-11-11T01:30:39;4.20;99.90
23233;DHT22;11785;49.500;8.288;2022-11-11T01:33:04;4.20;99.90
23233;DHT22;11785;49.500;8.288;2022-11-11T01:35:31;4.10;99.90
23233;DHT22;11785;49.500;8.288;2022-11-11T01:37:57;4.10;99.90
23233;DHT22;11785;49.500;8.288;2022-11-11T01:40:24;4.20;99.90
23233;DHT22;11785;49.500;8.288;2022-11-11T01:42:51;4.10;99.90
23233;DHT22;11785;49.500;8.288;2022-11-11T01:48:30;4.00;99.90
23233;DHT22;11785;49.500;8.288;2022-11-11T01:51:24;4.00;99.90
23233;DHT22;11785;49.500;8.288;2022-11-11T01:53:57;4.00;99.90
23233;DHT22;11785;49.500;8.288;2022-11-11T01:56:25;3.90;99.90
23233;DHT22;11785;49.500;8.288;2022-11-11T01:58:53;3.90;99.90
23233;DHT22;11785;49.500;8.288;2022-11-11T02:01:19;3.90;99.90
23233;DHT22;11785;49.500;8.288;2022-11-11T02:03:46;3.90;99.90
23233;DHT22;11785;49.500;8.288;2022-11-11T02:06:32;3.90;99.90
23233;DHT22;11785;49.500;8.288;2022-11-11T02:08:59;3.90;99.90
23233;DHT22;11785;49.500;8.288;2022-11-11T02:11:25;3.90;99.90
23233;DHT22;11785;49.500;8.288;2022-11-11T02:14:10;3.80;99.90
23233;DHT22;11785;49.500;8.288;2022-11-11T02:16:54;3.80;99.90
23233;DHT22;11785;49.500;8.288;2022-11-11T02:19:26;3.80;99.90
23233;DHT22;11785;49.500;8.288;2022-11-11T02:21:59;3.80;99.90
23233;DHT22;11785;49.500;8.288;2022-11-11T02:24:25;3.80;99.90
23233;DHT22;11785;49.500;8.288;2022-11-11T02:26:53;3.80;99.90
23233;DHT22;11785;49.500;8.288;2022-11-11T02:29:21;3.80;99.90
23233;DHT22;11785;49.500;8.288;2022-11-11T02:31:47;3.80;99.90
23233;DHT22;11785;49.500;8.288;2022-11-11T02:34:12;3.80;99.90
23233;DHT22;11785;49.500;8.288;2022-11-11T02:36:38;3.80;99.90
23233;DHT22;11785;49.500;8.288;2022-11-11T02:39:04;3.80;99.90
23233;DHT22;11785;49.500;8.288;2022-11-11T02:41:30;3.70;99.90
23233;DHT22;11785;49.500;8.288;2022-11-11T02:44:14;3.70;99.90
23233;DHT22;11785;49.500;8.288;2022-11-11T02:46:40;3.70;99.90
23233;DHT22;11785;49.500;8.288;2022-11-11T02:49:05;3.70;99.90
23233;DHT22;11785;49.500;8.288;2022-11-11T02:51:31;3.70;99.90
23233;DHT22;11785;49.500;8.288;2022-11-11T02:53:56;3.70;99.90
23233;DHT22;11785;49.500;8.288;2022-11-11T02:56:27;3.70;99.90
23233;DHT22;11785;49.500;8.288;2022-11-11T02:59:11;3.70;99.90
23233;DHT22;11785;49.500;8.288;2022-11-11T03:01:37;3.80;99.90
23233;DHT22;11785;49.500;8.288;2022-11-11T03:04:03;3.80;99.90
23233;DHT22;11785;49.500;8.288;2022-11-11T03:06:28;3.80;99.90
23233;DHT22;11785;49.500;8.288;2022-11-11T03:08:54;3.80;99.90
23233;DHT22;11785;49.500;8.288;2022-11-11T03:11:20;3.70;99.90
23233;DHT22;11785;49.500;8.288;2022-11-11T03:13:59;3.60;99.90
23233;DHT22;11785;49.500;8.288;2022-11-11T03:16:25;3.60;99.90
23233;DHT22;11785;49.500;8.288;2022-11-11T03:19:11;3.50;99.90
23233;DHT22;11785;49.500;8.288;2022-11-11T03:21:37;3.50;99.90
23233;DHT22;11785;49.500;8.288;2022-11-11T03:24:02;3.50;99.90
23233;DHT22;11785;49.500;8.288;2022-11-11T03:26:28;3.50;99.90
23233;DHT22;11785;49.500;8.288;2022-11-11T03:28:54;3.50;99.90
23233;DHT22;11785;49.500;8.288;2022-11-11T03:31:19;3.60;99.90
23233;DHT22;11785;49.500;8.288;2022-11-11T03:33:45;3.50;99.90
23233;DHT22;11785;49.500;8.288;2022-11-11T03:36:10;3.50;99.90
23233;DHT22;11785;49.500;8.288;2022-11-11T03:38:36;3.50;99.90
23233;DHT22;11785;49.500;8.288;2022-11-11T03:41:02;3.50;99.90
23233;DHT22;11785;49.500;8.288;2022-11-11T03:43:30;3.40;99.90
23233;DHT22;11785;49.500;8.288;2022-11-11T03:45:58;3.40;99.90
23233;DHT22;11785;49.500;8.288;2022-11-11T03:48:25;3.30;99.90
23233;DHT22;11785;49.500;8.288;2022-11-11T03:50:51;3.20;99.90
23233;DHT22;11785;49.500;8.288;2022-11-11T03:53:17;3.20;99.90
23233;DHT22;11785;49.500;8.288;2022-11-11T03:55:44;3.20;99.90
23233;DHT22;11785;49.500;8.288;2022-11-11T03:58:11;3.20;99.90
23233;DHT22;11785;49.500;8.288;2022-11-11T04:00:37;3.30;99.90
23233;DHT22;11785;49.500;8.288;2022-11-11T04:03:17;3.30;99.90
23233;DHT22;11785;49.500;8.288;2022-11-11T04:06:03;3.30;99.90
23233;DHT22;11785;49.500;8.288;2022-11-11T04:08:48;3.30;99.90
23233;DHT22;11785;49.500;8.288;2022-11-11T04:11:37;3.30;99.90
23233;DHT22;11785;49.500;8.288;2022-11-11T04:14:08;3.40;99.90
23233;DHT22;11785;49.500;8.288;2022-11-11T04:16:52;3.30;99.90
23233;DHT22;11785;49.500;8.288;2022-11-11T04:19:18;3.40;99.90
23233;DHT22;11785;49.500;8.288;2022-11-11T04:22:02;3.30;99.90
23233;DHT22;11785;49.500;8.288;2022-11-11T04:24:28;3.20;99.90
23233;DHT22;11785;49.500;8.288;2022-11-11T04:27:15;3.20;99.90
23233;DHT22;11785;49.500;8.288;2022-11-11T04:29:41;3.20;99.90
23233;DHT22;11785;49.500;8.288;2022-11-11T04:35:00;3.20;99.90
23233;DHT22;11785;49.500;8.288;2022-11-11T04:37:27;3.20;99.90
23233;DHT22;11785;49.500;8.288;2022-11-11T04:39:53;3.30;99.90
23233;DHT22;11785;49.500;8.288;2022-11-11T04:42:38;3.40;99.90
23233;DHT22;11785;49.500;8.288;2022-11-11T04:45:06;3.50;99.90
23233;DHT22;11785;49.500;8.288;2022-11-11T04:48:07;3.60;99.90
23233;DHT22;11785;49.500;8.288;2022-11-11T04:50:38;3.70;99.90
23233;DHT22;11785;49.500;8.288;2022-11-11T04:53:07;3.90;99.90
23233;DHT22;11785;49.500;8.288;2022-11-11T04:55:34;3.90;99.90
23233;DHT22;11785;49.500;8.288;2022-11-11T04:58:20;4.00;99.90
23233;DHT22;11785;49.500;8.288;2022-11-11T05:00:46;4.10;99.90
23233;DHT22;11785;49.500;8.288;2022-11-11T05:03:12;4.30;99.90
23233;DHT22;11785;49.500;8.288;2022-11-11T05:05:52;4.40;99.90
23233;DHT22;11785;49.500;8.288;2022-11-11T05:08:43;4.50;99.90
23233;DHT22;11785;49.500;8.288;2022-11-11T05:11:26;4.60;99.90
23233;DHT22;11785;49.500;8.288;2022-11-11T05:13:53;4.60;99.90
23233;DHT22;11785;49.500;8.288;2022-11-11T05:16:41;4.70;99.90
23233;DHT22;11785;49.500;8.288;2022-11-11T05:19:26;4.80;99.90
23233;DHT22;11785;49.500;8.288;2022-11-11T05:24:38;4.90;99.90
23233;DHT22;11785;49.500;8.288;2022-11-11T05:27:29;5.00;99.90
23233;DHT22;11785;49.500;8.288;2022-11-11T05:29:55;5.00;99.90
23233;DHT22;11785;49.500;8.288;2022-11-11T05:32:22;4.90;99.90
23233;DHT22;11785;49.500;8.288;2022-11-11T05:34:47;4.90;99.90
23233;DHT22;11785;49.500;8.288;2022-11-11T05:37:14;4.90;99.90
23233;DHT22;11785;49.500;8.288;2022-11-11T05:39:40;4.90;99.90
23233;DHT22;11785;49.500;8.288;2022-11-11T05:42:06;5.00;99.90
23233;DHT22;11785;49.500;8.288;2022-11-11T05:44:32;5.00;99.90
23233;DHT22;11785;49.500;8.288;2022-11-11T05:46:57;5.10;99.90
23233;DHT22;11785;49.500;8.288;2022-11-11T05:49:23;5.10;99.90
23233;DHT22;11785;49.500;8.288;2022-11-11T05:51:49;5.10;99.90
23233;DHT22;11785;49.500;8.288;2022-11-11T05:54:16;5.20;99.90
23233;DHT22;11785;49.500;8.288;2022-11-11T05:56:41;5.20;99.90
23233;DHT22;11785;49.500;8.288;2022-11-11T05:59:08;5.30;99.90
23233;DHT22;11785;49.500;8.288;2022-11-11T06:01:34;5.40;99.90
23233;DHT22;11785;49.500;8.288;2022-11-11T06:04:00;5.40;99.90
23233;DHT22;11785;49.500;8.288;2022-11-11T06:06:25;5.50;99.90
23233;DHT22;11785;49.500;8.288;2022-11-11T06:08:51;5.50;99.90
23233;DHT22;11785;49.500;8.288;2022-11-11T06:11:16;5.60;99.90
23233;DHT22;11785;49.500;8.288;2022-11-11T06:13:42;5.60;99.90
23233;DHT22;11785;49.500;8.288;2022-11-11T06:16:08;5.60;99.90
23233;DHT22;11785;49.500;8.288;2022-11-11T06:18:33;5.60;99.90
23233;DHT22;11785;49.500;8.288;2022-11-11T06:20:59;5.60;99.90
23233;DHT22;11785;49.500;8.288;2022-11-11T06:23:26;5.60;99.90
23233;DHT22;11785;49.500;8.288;2022-11-11T06:25:52;5.60;99.90
23233;DHT22;11785;49.500;8.288;2022-11-11T06:28:53;5.60;99.90
23233;DHT22;11785;49.500;8.288;2022-11-11T06:31:26;5.50;99.90
23233;DHT22;11785;49.500;8.288;2022-11-11T06:33:52;5.40;99.90
23233;DHT22;11785;49.500;8.288;2022-11-11T06:36:20;5.40;99.90
23233;DHT22;11785;49.500;8.288;2022-11-11T06:38:46;5.30;99.90
23233;DHT22;11785;49.500;8.288;2022-11-11T06:41:12;5.30;99.90
23233;DHT22;11785;49.500;8.288;2022-11-11T06:43:42;5.30;99.90
23233;DHT22;11785;49.500;8.288;2022-11-11T06:46:22;5.30;99.90
23233;DHT22;11785;49.500;8.288;2022-11-11T06:48:48;5.30;99.90
23233;DHT22;11785;49.500;8.288;2022-11-11T06:51:14;5.30;99.90
23233;DHT22;11785;49.500;8.288;2022-11-11T06:53:41;5.30;99.90
23233;DHT22;11785;49.500;8.288;2022-11-11T06:56:07;5.30;99.90
23233;DHT22;11785;49.500;8.288;2022-11-11T06:58:34;5.30;99.90
23233;DHT22;11785;49.500;8.288;2022-11-11T07:01:03;5.30;99.90
23233;DHT22;11785;49.500;8.288;2022-11-11T07:03:29;5.40;99.90
23233;DHT22;11785;49.500;8.288;2022-11-11T07:05:54;5.40;99.90
23233;DHT22;11785;49.500;8.288;2022-11-11T07:08:20;5.50;99.90
23233;DHT22;11785;49.500;8.288;2022-11-11T07:10:47;5.60;99.90
23233;DHT22;11785;49.500;8.288;2022-11-11T07:13:14;5.70;99.90
23233;DHT22;11785;49.500;8.288;2022-11-11T07:15:41;5.80;99.90
23233;DHT22;11785;49.500;8.288;2022-11-11T07:18:08;5.90;99.90
23233;DHT22;11785;49.500;8.288;2022-11-11T07:20:33;5.90;99.90
23233;DHT22;11785;49.500;8.288;2022-11-11T07:22:59;6.00;99.90
23233;DHT22;11785;49.500;8.288;2022-11-11T07:25:25;6.00;99.90
23233;DHT22;11785;49.500;8.288;2022-11-11T07:27:50;6.00;99.90
23233;DHT22;11785;49.500;8.288;2022-11-11T07:30:16;6.10;99.90
23233;DHT22;11785;49.500;8.288;2022-11-11T07:32:46;6.10;99.90
23233;DHT22;11785;49.500;8.288;2022-11-11T07:35:13;6.10;99.90
23233;DHT22;11785;49.500;8.288;2022-11-11T07:37:39;6.00;99.90
23233;DHT22;11785;49.500;8.288;2022-11-11T07:40:05;6.00;99.90
23233;DHT22;11785;49.500;8.288;2022-11-11T07:42:30;6.10;99.90
23233;DHT22;11785;49.500;8.288;2022-11-11T07:44:56;6.20;99.90
23233;DHT22;11785;49.500;8.288;2022-11-11T07:47:21;6.20;99.90
23233;DHT22;11785;49.500;8.288;2022-11-11T07:49:47;6.30;99.90
23233;DHT22;11785;49.500;8.288;2022-11-11T07:52:13;6.20;99.90
23233;DHT22;11785;49.500;8.288;2022-11-11T07:54:38;6.00;99.90
23233;DHT22;11785;49.500;8.288;2022-11-11T07:57:04;6.10;99.90
23233;DHT22;11785;49.500;8.288;2022-11-11T07:59:29;6.20;99.90
23233;DHT22;11785;49.500;8.288;2022-11-11T08:01:55;6.20;99.90
23233;DHT22;11785;49.500;8.288;2022-11-11T08:04:20;6.30;99.90
23233;DHT22;11785;49.500;8.288;2022-11-11T08:06:46;6.30;99.90
23233;DHT22;11785;49.500;8.288;2022-11-11T08:09:11;6.20;99.90
23233;DHT22;11785;49.500;8.288;2022-11-11T08:11:37;6.10;99.90
23233;DHT22;11785;49.500;8.288;2022-11-11T08:14:21;6.10;99.90
23233;DHT22;11785;49.500;8.288;2022-11-11T08:16:47;6.20;99.90
23233;DHT22;11785;49.500;8.288;2022-11-11T08:19:12;6.30;99.90
23233;DHT22;11785;49.500;8.288;2022-11-11T08:21:38;6.40;99.90
23233;DHT22;11785;49.500;8.288;2022-11-11T08:24:03;6.50;99.90
23233;DHT22;11785;49.500;8.288;2022-11-11T08:26:29;6.50;99.90
23233;DHT22;11785;49.500;8.288;2022-11-11T08:28:56;6.60;99.90
23233;DHT22;11785;49.500;8.288;2022-11-11T08:31:22;6.70;99.90
23233;DHT22;11785;49.500;8.288;2022-11-11T08:33:48;6.80;99.90
23233;DHT22;11785;49.500;8.288;2022-11-11T08:36:13;6.90;99.90
23233;DHT22;11785;49.500;8.288;2022-11-11T08:38:39;6.70;99.90
23233;DHT22;11785;49.500;8.288;2022-11-11T08:41:06;6.80;99.90
23233;DHT22;11785;49.500;8.288;2022-11-11T08:43:32;6.80;99.90
23233;DHT22;11785;49.500;8.288;2022-11-11T08:45:59;6.90;99.90
23233;DHT22;11785;49.500;8.288;2022-11-11T08:48:25;7.00;99.90
23233;DHT22;11785;49.500;8.288;2022-11-11T08:50:51;6.90;99.90
23233;DHT22;11785;49.500;8.288;2022-11-11T08:53:18;7.10;99.90
23233;DHT22;11785;49.500;8.288;2022-11-11T08:55:45;7.10;99.90
23233;DHT22;11785;49.500;8.288;2022-11-11T08:58:11;7.00;99.90
23233;DHT22;11785;49.500;8.288;2022-11-11T09:00:37;7.00;99.90
23233;DHT22;11785;49.500;8.288;2022-11-11T09:03:05;7.00;99.90
23233;DHT22;11785;49.500;8.288;2022-11-11T09:05:32;7.00;99.90
23233;DHT22;11785;49.500;8.288;2022-11-11T09:08:01;7.00;99.90
23233;DHT22;11785;49.500;8.288;2022-11-11T09:10:27;7.00;99.90
23233;DHT22;11785;49.500;8.288;2022-11-11T09:12:57;7.00;99.90
23233;DHT22;11785;49.500;8.288;2022-11-11T09:15:23;7.10;99.90
23233;DHT22;11785;49.500;8.288;2022-11-11T09:17:48;7.20;99.90
23233;DHT22;11785;49.500;8.288;2022-11-11T09:20:14;7.20;99.90
23233;DHT22;11785;49.500;8.288;2022-11-11T09:22:44;7.30;99.90
23233;DHT22;11785;49.500;8.288;2022-11-11T09:25:09;7.30;99.90
23233;DHT22;11785;49.500;8.288;2022-11-11T09:27:35;7.40;99.90
23233;DHT22;11785;49.500;8.288;2022-11-11T09:30:01;7.40;99.90
23233;DHT22;11785;49.500;8.288;2022-11-11T09:32:26;7.40;99.90
23233;DHT22;11785;49.500;8.288;2022-11-11T09:34:52;7.40;99.90
23233;DHT22;11785;49.500;8.288;2022-11-11T09:37:19;7.50;99.90
23233;DHT22;11785;49.500;8.288;2022-11-11T09:39:45;7.50;99.90
23233;DHT22;11785;49.500;8.288;2022-11-11T09:42:48;7.50;99.90
23233;DHT22;11785;49.500;8.288;2022-11-11T09:48:19;7.40;99.90
23233;DHT22;11785;49.500;8.288;2022-11-11T09:50:52;7.50;99.90
23233;DHT22;11785;49.500;8.288;2022-11-11T09:53:32;7.60;99.90
23233;DHT22;11785;49.500;8.288;2022-11-11T09:56:15;7.60;99.90
23233;DHT22;11785;49.500;8.288;2022-11-11T09:58:51;7.40;99.90
23233;DHT22;11785;49.500;8.288;2022-11-11T10:01:24;7.30;99.90
23233;DHT22;11785;49.500;8.288;2022-11-11T10:06:39;7.40;99.90
23233;DHT22;11785;49.500;8.288;2022-11-11T10:09:18;7.40;99.90
23233;DHT22;11785;49.500;8.288;2022-11-11T10:14:48;7.60;99.90
23233;DHT22;11785;49.500;8.288;2022-11-11T10:20:45;7.80;99.90
23233;DHT22;11785;49.500;8.288;2022-11-11T10:23:20;7.80;99.90
23233;DHT22;11785;49.500;8.288;2022-11-11T10:25:56;7.80;99.90
23233;DHT22;11785;49.500;8.288;2022-11-11T10:28:34;7.70;99.90
23233;DHT22;11785;49.500;8.288;2022-11-11T10:31:02;7.50;99.90
23233;DHT22;11785;49.500;8.288;2022-11-11T10:33:34;7.60;99.90
23233;DHT22;11785;49.500;8.288;2022-11-11T10:36:04;7.50;99.90
23233;DHT22;11785;49.500;8.288;2022-11-11T10:41:03;7.70;99.90
23233;DHT22;11785;49.500;8.288;2022-11-11T10:43:30;7.80;99.90
23233;DHT22;11785;49.500;8.288;2022-11-11T10:51:15;7.90;99.90
23233;DHT22;11785;49.500;8.288;2022-11-11T10:54:03;8.00;99.90
23233;DHT22;11785;49.500;8.288;2022-11-11T10:57:08;8.20;99.90
23233;DHT22;11785;49.500;8.288;2022-11-11T10:59:41;8.00;99.90
23233;DHT22;11785;49.500;8.288;2022-11-11T11:04:55;8.00;99.90
23233;DHT22;11785;49.500;8.288;2022-11-11T11:07:27;8.00;99.90
23233;DHT22;11785;49.500;8.288;2022-11-11T11:12:45;7.80;99.90
23233;DHT22;11785;49.500;8.288;2022-11-11T11:15:19;7.90;99.90
23233;DHT22;11785;49.500;8.288;2022-11-11T11:18:08;7.90;99.90
23233;DHT22;11785;49.500;8.288;2022-11-11T11:20:35;7.90;99.90
23233;DHT22;11785;49.500;8.288;2022-11-11T11:23:01;8.00;99.90
23233;DHT22;11785;49.500;8.288;2022-11-11T11:25:28;8.00;99.90
23233;DHT22;11785;49.500;8.288;2022-11-11T11:28:11;8.00;99.90
23233;DHT22;11785;49.500;8.288;2022-11-11T11:30:38;8.00;99.90
23233;DHT22;11785;49.500;8.288;2022-11-11T11:33:08;8.00;99.90
23233;DHT22;11785;49.500;8.288;2022-11-11T11:35:39;8.10;99.90
23233;DHT22;11785;49.500;8.288;2022-11-11T11:38:07;8.30;99.90
23233;DHT22;11785;49.500;8.288;2022-11-11T11:40:51;8.30;99.90
23233;DHT22;11785;49.500;8.288;2022-11-11T11:43:38;8.30;99.90
23233;DHT22;11785;49.500;8.288;2022-11-11T11:46:15;8.30;99.90
23233;DHT22;11785;49.500;8.288;2022-11-11T12:00:23;7.90;99.90
23233;DHT22;11785;49.500;8.288;2022-11-11T12:03:07;7.90;99.90
23233;DHT22;11785;49.500;8.288;2022-11-11T12:11:43;8.30;99.90
23233;DHT22;11785;49.500;8.288;2022-11-11T12:17:49;8.20;99.90
23233;DHT22;11785;49.500;8.288;2022-11-11T12:20:26;8.20;99.90
23233;DHT22;11785;49.500;8.288;2022-11-11T12:25:46;8.10;99.90
23233;DHT22;11785;49.500;8.288;2022-11-11T12:30:50;8.30;99.90
23233;DHT22;11785;49.500;8.288;2022-11-11T12:36:28;8.30;99.90
23233;DHT22;11785;49.500;8.288;2022-11-11T12:39:10;8.40;99.90
23233;DHT22;11785;49.500;8.288;2022-11-11T12:41:44;8.50;99.90
23233;DHT22;11785;49.500;8.288;2022-11-11T12:44:13;8.60;99.90
23233;DHT22;11785;49.500;8.288;2022-11-11T12:46:58;8.60;99.90
23233;DHT22;11785;49.500;8.288;2022-11-11T12:59:04;8.70;99.90
23233;DHT22;11785;49.500;8.288;2022-11-11T13:01:56;8.70;99.90
23233;DHT22;11785;49.500;8.288;2022-11-11T13:08:05;8.70;99.90
23233;DHT22;11785;49.500;8.288;2022-11-11T13:10:56;8.60;99.90
23233;DHT22;11785;49.500;8.288;2022-11-11T13:13:52;8.40;99.90
23233;DHT22;11785;49.500;8.288;2022-11-11T13:16:22;8.40;99.90
23233;DHT22;11785;49.500;8.288;2022-11-11T13:18:56;8.50;99.90
23233;DHT22;11785;49.500;8.288;2022-11-11T13:22:14;8.60;99.90
23233;DHT22;11785;49.500;8.288;2022-11-11T13:24:21;8.70;99.90
23233;DHT22;11785;49.500;8.288;2022-11-11T13:32:00;8.70;99.90
23233;DHT22;11785;49.500;8.288;2022-11-11T13:34:30;8.70;99.90
23233;DHT22;11785;49.500;8.288;2022-11-11T13:37:02;8.70;99.90
23233;DHT22;11785;49.500;8.288;2022-11-11T13:39:44;8.80;99.90
23233;DHT22;11785;49.500;8.288;2022-11-11T13:42:12;8.80;99.90
23233;DHT22;11785;49.500;8.288;2022-11-11T13:45:00;8.80;99.90
23233;DHT22;11785;49.500;8.288;2022-11-11T13:47:35;8.70;99.90
23233;DHT22;11785;49.500;8.288;2022-11-11T13:52:39;8.60;99.90
23233;DHT22;11785;49.500;8.288;2022-11-11T13:55:23;8.60;99.90
23233;DHT22;11785;49.500;8.288;2022-11-11T13:57:51;8.60;99.90
23233;DHT22;11785;49.500;8.288;2022-11-11T14:02:43;8.60;99.90
23233;DHT22;11785;49.500;8.288;2022-11-11T14:15:43;8.60;99.90
23233;DHT22;11785;49.500;8.288;2022-11-11T14:20:48;8.70;99.90
23233;DHT22;11785;49.500;8.288;2022-11-11T14:28:51;8.30;99.90
23233;DHT22;11785;49.500;8.288;2022-11-11T14:31:25;8.30;99.90
23233;DHT22;11785;49.500;8.288;2022-11-11T14:34:30;8.20;99.90
23233;DHT22;11785;49.500;8.288;2022-11-11T14:39:51;8.30;99.90
23233;DHT22;11785;49.500;8.288;2022-11-11T14:44:59;8.40;99.90
23233;DHT22;11785;49.500;8.288;2022-11-11T14:47:32;8.40;99.90
23233;DHT22;11785;49.500;8.288;2022-11-11T14:49:58;8.40;99.90
23233;DHT22;11785;49.500;8.288;2022-11-11T14:59:54;8.40;99.90
23233;DHT22;11785;49.500;8.288;2022-11-11T15:02:27;8.40;99.90
23233;DHT22;11785;49.500;8.288;2022-11-11T15:04:57;8.40;99.90
23233;DHT22;11785;49.500;8.288;2022-11-11T15:07:59;8.40;99.90
23233;DHT22;11785;49.500;8.288;2022-11-11T15:21:33;8.30;99.90
23233;DHT22;11785;49.500;8.288;2022-11-11T15:35:17;8.20;99.90
23233;DHT22;11785;49.500;8.288;2022-11-11T15:37:53;8.20;99.90
23233;DHT22;11785;49.500;8.288;2022-11-11T15:40:25;8.20;99.90
23233;DHT22;11785;49.500;8.288;2022-11-11T15:42:51;8.20;99.90
23233;DHT22;11785;49.500;8.288;2022-11-11T15:47:43;8.20;99.90
23233;DHT22;11785;49.500;8.288;2022-11-11T15:50:29;8.20;99.90
23233;DHT22;11785;49.500;8.288;2022-11-11T15:52:59;8.20;99.90
23233;DHT22;11785;49.500;8.288;2022-11-11T15:55:30;8.20;99.90
23233;DHT22;11785;49.500;8.288;2022-11-11T16:00:50;8.20;99.90
23233;DHT22;11785;49.500;8.288;2022-11-11T16:03:20;8.10;99.90
23233;DHT22;11785;49.500;8.288;2022-11-11T16:05:47;8.20;99.90
23233;DHT22;11785;49.500;8.288;2022-11-11T16:08:16;8.20;99.90
23233;DHT22;11785;49.500;8.288;2022-11-11T16:10:45;8.20;99.90
23233;DHT22;11785;49.500;8.288;2022-11-11T16:13:20;8.20;99.90
23233;DHT22;11785;49.500;8.288;2022-11-11T16:15:58;8.20;99.90
23233;DHT22;11785;49.500;8.288;2022-11-11T16:18:28;8.20;99.90
23233;DHT22;11785;49.500;8.288;2022-11-11T16:21:13;8.20;99.90
23233;DHT22;11785;49.500;8.288;2022-11-11T16:23:41;8.20;99.90
23233;DHT22;11785;49.500;8.288;2022-11-11T16:26:07;8.20;99.90
23233;DHT22;11785;49.500;8.288;2022-11-11T16:34:00;8.20;99.90
23233;DHT22;11785;49.500;8.288;2022-11-11T16:37:03;8.20;99.90
23233;DHT22;11785;49.500;8.288;2022-11-11T16:39:29;8.20;99.90
23233;DHT22;11785;49.500;8.288;2022-11-11T16:41:56;8.20;99.90
23233;DHT22;11785;49.500;8.288;2022-11-11T16:44:33;8.20;99.90
23233;DHT22;11785;49.500;8.288;2022-11-11T16:47:00;8.20;99.90
23233;DHT22;11785;49.500;8.288;2022-11-11T16:49:38;8.30;99.90
23233;DHT22;11785;49.500;8.288;2022-11-11T16:52:17;8.30;99.90
23233;DHT22;11785;49.500;8.288;2022-11-11T16:54:55;8.30;99.90
23233;DHT22;11785;49.500;8.288;2022-11-11T16:57:31;8.20;99.90
23233;DHT22;11785;49.500;8.288;2022-11-11T17:00:01;8.20;99.90
23233;DHT22;11785;49.500;8.288;2022-11-11T17:02:28;8.30;99.90
23233;DHT22;11785;49.500;8.288;2022-11-11T17:04:55;8.30;99.90
23233;DHT22;11785;49.500;8.288;2022-11-11T17:07:32;8.30;99.90
23233;DHT22;11785;49.500;8.288;2022-11-11T17:12:34;8.30;99.90
23233;DHT22;11785;49.500;8.288;2022-11-11T17:15:00;8.30;99.90
23233;DHT22;11785;49.500;8.288;2022-11-11T17:17:28;8.30;99.90
23233;DHT22;11785;49.500;8.288;2022-11-11T17:19:56;8.30;99.90
23233;DHT22;11785;49.500;8.288;2022-11-11T17:22:22;8.30;99.90
23233;DHT22;11785;49.500;8.288;2022-11-11T17:24:48;8.30;99.90
23233;DHT22;11785;49.500;8.288;2022-11-11T17:27:13;8.30;99.90
23233;DHT22;11785;49.500;8.288;2022-11-11T17:29:39;8.20;99.90
23233;DHT22;11785;49.500;8.288;2022-11-11T17:32:04;8.20;99.90
23233;DHT22;11785;49.500;8.288;2022-11-11T17:34:30;8.20;99.90
23233;DHT22;11785;49.500;8.288;2022-11-11T17:36:56;8.20;99.90
23233;DHT22;11785;49.500;8.288;2022-11-11T17:39:21;8.20;99.90
23233;DHT22;11785;49.500;8.288;2022-11-11T17:41:47;8.20;99.90
23233;DHT22;11785;49.500;8.288;2022-11-11T17:44:13;8.20;99.90
23233;DHT22;11785;49.500;8.288;2022-11-11T17:46:38;8.20;99.90
23233;DHT22;11785;49.500;8.288;2022-11-11T17:49:04;8.20;99.90
23233;DHT22;11785;49.500;8.288;2022-11-11T17:51:29;8.20;99.90
23233;DHT22;11785;49.500;8.288;2022-11-11T17:53:55;8.20;99.90
23233;DHT22;11785;49.500;8.288;2022-11-11T17:56:22;8.20;99.90
23233;DHT22;11785;49.500;8.288;2022-11-11T17:58:51;8.20;99.90
23233;DHT22;11785;49.500;8.288;2022-11-11T18:01:17;8.20;99.90
23233;DHT22;11785;49.500;8.288;2022-11-11T18:03:43;8.20;99.90
23233;DHT22;11785;49.500;8.288;2022-11-11T18:06:09;8.30;99.90
23233;DHT22;11785;49.500;8.288;2022-11-11T18:08:35;8.30;99.90
23233;DHT22;11785;49.500;8.288;2022-11-11T18:11:05;8.30;99.90
23233;DHT22;11785;49.500;8.288;2022-11-11T18:13:31;8.20;99.90
23233;DHT22;11785;49.500;8.288;2022-11-11T18:15:59;8.20;99.90
23233;DHT22;11785;49.500;8.288;2022-11-11T18:18:27;8.20;99.90
23233;DHT22;11785;49.500;8.288;2022-11-11T18:20:58;8.20;99.90
23233;DHT22;11785;49.500;8.288;2022-11-11T18:23:24;8.20;99.90
23233;DHT22;11785;49.500;8.288;2022-11-11T18:25:54;8.20;99.90
23233;DHT22;11785;49.500;8.288;2022-11-11T18:28:20;8.20;99.90
23233;DHT22;11785;49.500;8.288;2022-11-11T18:30:45;8.30;99.90
23233;DHT22;11785;49.500;8.288;2022-11-11T18:33:11;8.20;99.90
23233;DHT22;11785;49.500;8.288;2022-11-11T18:35:36;8.20;99.90
23233;DHT22;11785;49.500;8.288;2022-11-11T18:38:02;8.20;99.90
23233;DHT22;11785;49.500;8.288;2022-11-11T18:40:27;8.20;99.90